Poronajsk, Russia
Current Conditions -  °F | °C
As of 12:30 PM on Saturday 22 Nov 2014 (Local Time) from UHSS Reporting Station
Light Fog Light Fog  
Wind Chill: 36°   Ceiling: 2300
Heat Index: 36°   Visibility: 1.1mi
Dew Point: 36°   Wind: 0mph
Humidity: 100%   Direction: NA
Pressure: 30"   Gusts: NA
Location:  49.22°N, 143.12°E
Report Text: UHSS 220130Z 00000MPS 1800 MIFG BR BKN023 02/02 Q1016 NOSIG RMKMT OBSC QFE761/1014 19350142
Loading
Personal Weather Stations






























Interactive Weather Map New forecast layout! Learn more

10-Day Weather Forecast

Advertisements
Track Severe Weather on mobile